Time;durP1;ratioP1;P1;durP2;ratioP2;P2;SDS_P1;SDS_P2;PMS_P1;PMS_P2;Temp;Humidity;BMP_temperature;BMP_pressure;BME280_temperature;BME280_humidity;BME280_pressure;Samples;Min_cycle;Max_cycle;Signal;HPM_P1;HPM_P2
2021/03/29 00:02:10;;;;;;;10.95;5.63;;;7.90;99.90;;;;;;4800963;29;20054;-82
2021/03/29 00:04:36;;;;;;;18.50;8.05;;;7.90;99.90;;;;;;4816620;29;20058;-83
2021/03/29 00:07:04;;;;;;;14.05;7.18;;;7.90;99.90;;;;;;4773875;29;20058;-84
2021/03/29 00:09:31;;;;;;;20.52;8.35;;;7.90;99.90;;;;;;4799483;29;20118;-83
2021/03/29 00:12:06;;;;;;;13.90;8.02;;;7.90;99.90;;;;;;4827001;29;20094;-83
2021/03/29 00:14:33;;;;;;;15.95;7.45;;;7.90;99.90;;;;;;4796661;29;20071;-83
2021/03/29 00:16:59;;;;;;;15.90;8.25;;;7.80;99.90;;;;;;4764191;29;20082;-83
2021/03/29 00:19:30;;;;;;;16.33;8.05;;;7.90;99.90;;;;;;4779224;29;20111;-83
2021/03/29 00:21:57;;;;;;;14.10;8.10;;;7.90;99.90;;;;;;4794445;29;20054;-84
2021/03/29 00:24:23;;;;;;;27.80;11.68;;;7.90;99.90;;;;;;4779440;29;20115;-83
2021/03/29 00:26:53;;;;;;;21.00;8.98;;;7.90;99.90;;;;;;4780677;29;20054;-82
2021/03/29 00:29:20;;;;;;;21.77;10.85;;;7.90;99.90;;;;;;4791950;29;20058;-83
2021/03/29 00:31:47;;;;;;;18.58;9.30;;;7.90;99.90;;;;;;4793429;29;20130;-83
2021/03/29 00:34:14;;;;;;;22.77;9.75;;;7.90;99.90;;;;;;4804663;29;20114;-83
2021/03/29 00:36:40;;;;;;;18.58;9.32;;;7.80;99.90;;;;;;4805233;29;20144;-83
2021/03/29 00:39:08;;;;;;;16.65;9.45;;;7.90;99.90;;;;;;4816222;29;20133;-83
2021/03/29 00:41:35;;;;;;;17.65;8.90;;;7.80;99.90;;;;;;4806497;29;20054;-83
2021/03/29 00:44:02;;;;;;;20.17;8.65;;;7.80;99.90;;;;;;4802668;29;20058;-83
2021/03/29 00:46:29;;;;;;;16.15;7.32;;;7.80;99.90;;;;;;4795578;29;20058;-83
2021/03/29 00:48:56;;;;;;;18.67;8.25;;;7.80;99.90;;;;;;4793364;29;20059;-83
2021/03/29 00:51:27;;;;;;;17.77;9.07;;;7.80;99.90;;;;;;4784108;29;20146;-83
2021/03/29 00:54:02;;;;;;;16.05;8.98;;;7.80;99.90;;;;;;4793712;29;20163;-83
2021/03/29 00:56:29;;;;;;;20.02;9.15;;;7.80;99.90;;;;;;4801237;29;20492;-83
2021/03/29 00:58:57;;;;;;;16.50;7.57;;;7.80;99.90;;;;;;4802438;29;20411;-83
2021/03/29 01:01:29;;;;;;;14.60;6.63;;;7.80;99.90;;;;;;4813328;29;20081;-83
2021/03/29 01:04:00;;;;;;;15.07;7.25;;;7.80;99.90;;;;;;4809276;29;20051;-83
2021/03/29 01:06:34;;;;;;;15.52;7.60;;;7.80;99.90;;;;;;4768542;29;20055;-83
2021/03/29 01:09:15;;;;;;;16.27;7.15;;;7.80;99.90;;;;;;4778099;29;20119;-83
2021/03/29 01:12:05;;;;;;;13.43;6.90;;;7.90;99.90;;;;;;4805020;29;20057;-83
2021/03/29 01:14:42;;;;;;;16.70;6.60;;;7.90;99.90;;;;;;4849048;29;20062;-84
2021/03/29 01:17:17;;;;;;;15.80;6.20;;;7.90;99.90;;;;;;4808356;29;20107;-83
2021/03/29 01:20:07;;;;;;;16.10;6.22;;;7.90;99.90;;;;;;4808390;29;20087;-83
2021/03/29 01:22:42;;;;;;;10.60;6.05;;;7.90;99.90;;;;;;4808436;29;20050;-83
2021/03/29 01:25:36;;;;;;;15.18;6.32;;;7.90;99.90;;;;;;4792825;29;20057;-83
2021/03/29 01:28:07;;;;;;;15.20;6.30;;;7.90;99.90;;;;;;4807647;29;20062;-83
2021/03/29 01:30:35;;;;;;;17.23;5.80;;;8.00;99.90;;;;;;4793351;29;20081;-83
2021/03/29 01:33:03;;;;;;;11.65;5.18;;;8.00;99.90;;;;;;4811167;29;20054;-83
2021/03/29 01:35:32;;;;;;;15.40;6.25;;;8.00;99.90;;;;;;4807818;29;20046;-83
2021/03/29 01:38:00;;;;;;;16.42;5.30;;;8.00;99.90;;;;;;4807819;29;20475;-83
2021/03/29 01:40:26;;;;;;;13.60;5.15;;;8.00;99.90;;;;;;4777887;29;20070;-83
2021/03/29 01:42:53;;;;;;;19.95;6.35;;;8.10;99.90;;;;;;4792707;29;20494;-84
2021/03/29 01:45:20;;;;;;;12.65;5.60;;;8.10;99.90;;;;;;4792569;29;20083;-83
2021/03/29 01:47:47;;;;;;;13.48;5.30;;;8.10;99.90;;;;;;4792490;29;20054;-83
2021/03/29 01:50:23;;;;;;;13.50;5.55;;;8.10;99.90;;;;;;4793034;29;20563;-83
2021/03/29 01:52:50;;;;;;;10.15;5.35;;;8.10;99.90;;;;;;4807696;29;20058;-83
2021/03/29 01:55:17;;;;;;;10.55;3.92;;;8.10;99.90;;;;;;4777930;29;20061;-83
2021/03/29 01:57:44;;;;;;;10.20;5.13;;;8.10;99.90;;;;;;4819875;29;20070;-83
2021/03/29 02:00:12;;;;;;;6.25;4.07;;;8.20;99.90;;;;;;4803565;29;20070;-83
2021/03/29 02:02:42;;;;;;;7.85;3.88;;;8.20;99.90;;;;;;4815290;29;20063;-83
2021/03/29 02:05:11;;;;;;;11.95;4.68;;;8.20;99.90;;;;;;4784858;29;20458;-83
2021/03/29 02:07:38;;;;;;;11.18;4.07;;;8.20;99.90;;;;;;4813594;29;20050;-83
2021/03/29 02:10:15;;;;;;;8.93;3.75;;;8.20;99.90;;;;;;4807392;29;20058;-84
2021/03/29 02:12:42;;;;;;;9.68;4.80;;;8.20;99.90;;;;;;4766062;29;20059;-83
2021/03/29 02:15:14;;;;;;;14.75;4.45;;;8.20;99.90;;;;;;4781405;29;20065;-83
2021/03/29 02:17:41;;;;;;;13.07;4.00;;;8.20;99.90;;;;;;4838835;29;20054;-83
2021/03/29 02:20:15;;;;;;;7.72;3.78;;;8.20;99.90;;;;;;4792329;29;20061;-83
2021/03/29 02:23:15;;;;;;;9.13;4.18;;;8.20;99.90;;;;;;4824174;29;20078;-84
2021/03/29 02:25:41;;;;;;;10.88;3.75;;;8.30;99.90;;;;;;4805356;29;20058;-83
2021/03/29 02:28:08;;;;;;;9.18;4.47;;;8.30;99.90;;;;;;4776387;29;20058;-83
2021/03/29 02:30:36;;;;;;;12.23;3.30;;;8.30;99.90;;;;;;4788984;29;20053;-83
2021/03/29 02:33:07;;;;;;;11.38;3.92;;;8.30;99.90;;;;;;4800172;29;20046;-83
2021/03/29 02:35:35;;;;;;;10.98;4.50;;;8.40;99.90;;;;;;4783234;29;20059;-83
2021/03/29 02:38:02;;;;;;;11.25;4.30;;;8.40;99.90;;;;;;4806251;29;20522;-84
2021/03/29 02:40:29;;;;;;;14.15;4.32;;;8.40;99.90;;;;;;4794363;29;20149;-84
2021/03/29 02:42:56;;;;;;;10.95;3.75;;;8.40;99.90;;;;;;4809507;29;20050;-82
2021/03/29 02:45:25;;;;;;;9.30;4.28;;;8.40;99.90;;;;;;4794015;29;20491;-83
2021/03/29 02:47:53;;;;;;;9.63;4.10;;;8.50;99.90;;;;;;4806364;29;20054;-83
2021/03/29 02:50:22;;;;;;;10.40;3.53;;;8.50;99.90;;;;;;4786594;29;20157;-83
2021/03/29 02:52:50;;;;;;;11.85;4.25;;;8.40;99.90;;;;;;4781390;29;20162;-83
2021/03/29 02:55:17;;;;;;;9.85;3.97;;;8.50;99.90;;;;;;4793889;29;20054;-83
2021/03/29 02:57:46;;;;;;;11.93;4.20;;;8.50;99.90;;;;;;4794544;29;20053;-83
2021/03/29 03:00:17;;;;;;;9.18;4.25;;;8.50;99.90;;;;;;4792004;29;20083;-83
2021/03/29 03:02:44;;;;;;;8.70;4.03;;;8.50;99.90;;;;;;4825621;29;20054;-83
2021/03/29 03:05:11;;;;;;;11.45;4.80;;;8.50;99.90;;;;;;4826901;29;20057;-83
2021/03/29 03:07:38;;;;;;;7.13;3.80;;;8.50;99.90;;;;;;4794976;29;20057;-83
2021/03/29 03:10:10;;;;;;;9.35;4.38;;;8.50;99.90;;;;;;4791870;29;20144;-83
2021/03/29 03:12:42;;;;;;;9.23;3.83;;;8.50;99.90;;;;;;4781951;29;20145;-83
2021/03/29 03:15:17;;;;;;;8.90;4.18;;;8.50;99.90;;;;;;4810030;29;20145;-83
2021/03/29 03:17:45;;;;;;;9.80;4.32;;;8.60;99.90;;;;;;4810007;29;20718;-83
2021/03/29 03:20:13;;;;;;;12.48;3.95;;;8.60;99.90;;;;;;4824449;29;20059;-83
2021/03/29 03:22:52;;;;;;;11.98;4.90;;;8.60;99.90;;;;;;4809766;29;20137;-84
2021/03/29 03:25:26;;;;;;;8.88;3.45;;;8.60;99.90;;;;;;4809516;29;20499;-83
2021/03/29 03:28:00;;;;;;;7.70;3.67;;;8.50;99.90;;;;;;4788592;29;20058;-83
2021/03/29 03:30:29;;;;;;;11.52;4.47;;;8.60;99.90;;;;;;4801272;29;20123;-82
2021/03/29 03:32:56;;;;;;;7.18;3.47;;;8.60;99.90;;;;;;4809212;29;20082;-83
2021/03/29 03:35:24;;;;;;;10.82;4.50;;;8.60;99.90;;;;;;4780096;29;20154;-83
2021/03/29 03:38:22;;;;;;;9.95;3.92;;;8.60;99.90;;;;;;4794653;29;20061;-83
2021/03/29 03:41:13;;;;;;;12.10;4.03;;;8.60;99.90;;;;;;4776904;29;20058;-83
2021/03/29 03:43:49;;;;;;;12.95;5.05;;;8.60;99.90;;;;;;4788733;29;20057;-83
2021/03/29 03:46:21;;;;;;;9.90;4.85;;;8.60;99.90;;;;;;4796158;29;20123;-83
2021/03/29 03:48:51;;;;;;;16.38;6.07;;;8.60;99.90;;;;;;4794964;29;20058;-83
2021/03/29 03:51:18;;;;;;;14.35;5.05;;;8.60;99.90;;;;;;4791455;29;20474;-83
2021/03/29 03:53:45;;;;;;;9.35;4.47;;;8.60;99.90;;;;;;4790985;29;20090;-83
2021/03/29 03:56:12;;;;;;;15.75;5.50;;;8.60;99.90;;;;;;4804166;29;20062;-83
2021/03/29 03:58:38;;;;;;;7.65;3.55;;;8.60;99.90;;;;;;4794674;29;20058;-83
2021/03/29 04:01:07;;;;;;;13.18;5.20;;;8.60;99.90;;;;;;4808913;29;20043;-83
2021/03/29 04:03:34;;;;;;;13.70;5.35;;;8.60;99.90;;;;;;4806578;29;20148;-83
2021/03/29 04:06:01;;;;;;;12.55;4.53;;;8.50;99.90;;;;;;4794226;29;20153;-84
2021/03/29 04:08:42;;;;;;;9.43;4.85;;;8.50;99.90;;;;;;4821620;29;20089;-83
2021/03/29 04:11:09;;;;;;;11.77;4.63;;;8.50;99.90;;;;;;4809341;29;20051;-83
2021/03/29 04:13:36;;;;;;;12.75;4.78;;;8.50;99.90;;;;;;4799267;29;20498;-84
2021/03/29 04:16:05;;;;;;;11.63;5.45;;;8.60;99.90;;;;;;4790443;29;20054;-83
2021/03/29 04:18:32;;;;;;;8.77;4.43;;;8.50;99.90;;;;;;4814185;29;20054;-83
2021/03/29 04:20:59;;;;;;;9.88;4.45;;;8.60;99.90;;;;;;4809492;29;20046;-83
2021/03/29 04:23:28;;;;;;;11.70;5.25;;;8.50;99.90;;;;;;4779256;29;20089;-83
2021/03/29 04:25:55;;;;;;;11.68;5.25;;;8.60;99.90;;;;;;4806640;29;20464;-83
2021/03/29 04:28:21;;;;;;;11.43;4.00;;;8.50;99.90;;;;;;4802444;29;20514;-82
2021/03/29 04:30:49;;;;;;;12.68;4.88;;;8.50;99.90;;;;;;4813808;29;20088;-83
2021/03/29 04:33:18;;;;;;;16.85;6.25;;;8.50;99.90;;;;;;4801187;29;20139;-83
2021/03/29 04:35:46;;;;;;;10.95;4.50;;;8.50;99.90;;;;;;4791221;29;20109;-83
2021/03/29 04:38:13;;;;;;;12.30;4.38;;;8.50;99.90;;;;;;4793381;29;20055;-83
2021/03/29 04:40:40;;;;;;;9.45;4.22;;;8.50;99.90;;;;;;4806001;29;20164;-83
2021/03/29 04:43:07;;;;;;;13.10;4.80;;;8.50;99.90;;;;;;4808074;29;20062;-83
2021/03/29 04:45:34;;;;;;;14.50;5.82;;;8.50;99.90;;;;;;4793345;29;20053;-83
2021/03/29 04:48:01;;;;;;;10.43;5.10;;;8.50;99.90;;;;;;4801942;29;20248;-84
2021/03/29 04:50:28;;;;;;;8.18;4.38;;;8.50;99.90;;;;;;4795679;29;20066;-83
2021/03/29 04:52:55;;;;;;;10.00;4.93;;;8.40;99.90;;;;;;4830305;29;20050;-82
2021/03/29 04:55:22;;;;;;;10.10;4.28;;;8.50;99.90;;;;;;4804956;29;20100;-82
2021/03/29 04:57:49;;;;;;;12.15;4.57;;;8.50;99.90;;;;;;4800701;29;20144;-83
2021/03/29 05:00:15;;;;;;;12.88;4.47;;;8.50;99.90;;;;;;4814364;29;20151;-83
2021/03/29 05:02:43;;;;;;;8.25;4.07;;;8.50;99.90;;;;;;4792012;29;20058;-83
2021/03/29 05:05:10;;;;;;;9.90;5.05;;;8.50;99.90;;;;;;4803349;29;20058;-83
2021/03/29 05:07:39;;;;;;;11.23;3.92;;;8.60;99.90;;;;;;4808062;29;20080;-83
2021/03/29 05:10:10;;;;;;;9.85;4.82;;;8.60;99.90;;;;;;4797837;29;20080;-83
2021/03/29 05:12:37;;;;;;;9.45;3.55;;;8.60;99.90;;;;;;4793133;29;20418;-83
2021/03/29 05:15:06;;;;;;;13.25;4.63;;;8.60;99.90;;;;;;4801403;29;20455;-84
2021/03/29 05:17:33;;;;;;;9.40;4.65;;;8.60;99.90;;;;;;4782500;29;20068;-84
2021/03/29 05:20:01;;;;;;;19.98;6.55;;;8.70;99.90;;;;;;4808285;29;20110;-84
2021/03/29 05:22:28;;;;;;;15.70;5.68;;;8.70;99.90;;;;;;4790725;29;20114;-84
2021/03/29 05:24:54;;;;;;;15.32;5.85;;;8.70;99.90;;;;;;4798355;29;20141;-83
2021/03/29 05:27:21;;;;;;;14.80;5.38;;;8.80;99.90;;;;;;4779188;29;20141;-83
2021/03/29 05:29:49;;;;;;;16.73;6.78;;;8.80;99.90;;;;;;4804656;29;20051;-83
2021/03/29 05:32:18;;;;;;;13.00;5.03;;;8.80;99.90;;;;;;4792522;29;20559;-85
2021/03/29 05:34:46;;;;;;;15.98;5.72;;;8.80;99.90;;;;;;4807590;29;20479;-83
2021/03/29 05:37:13;;;;;;;16.58;6.38;;;8.90;99.90;;;;;;4804409;29;20065;-83
2021/03/29 05:39:41;;;;;;;19.45;6.60;;;8.90;99.90;;;;;;4798313;29;20056;-83
2021/03/29 05:42:08;;;;;;;17.55;5.72;;;9.00;99.90;;;;;;4827410;29;20056;-83
2021/03/29 05:44:36;;;;;;;12.10;4.80;;;9.10;99.90;;;;;;4805570;29;20054;-83
2021/03/29 05:47:04;;;;;;;13.30;5.35;;;9.10;99.90;;;;;;4815219;29;20065;-84
2021/03/29 05:49:32;;;;;;;16.38;5.88;;;9.20;99.90;;;;;;4800032;29;20054;-84
2021/03/29 05:51:59;;;;;;;14.07;5.03;;;9.20;99.90;;;;;;4805284;29;20405;-83
2021/03/29 05:54:26;;;;;;;11.75;5.07;;;9.30;99.90;;;;;;4774053;29;20062;-84
2021/03/29 05:56:53;;;;;;;16.63;5.22;;;9.40;99.90;;;;;;4776244;29;20058;-83
2021/03/29 05:59:23;;;;;;;12.63;4.90;;;9.40;99.90;;;;;;4800559;29;20074;-83
2021/03/29 06:01:51;;;;;;;12.63;4.15;;;9.50;99.90;;;;;;4781002;29;20129;-83
2021/03/29 06:04:40;;;;;;;12.73;4.68;;;9.60;99.90;;;;;;4817867;29;20505;-83
2021/03/29 06:07:22;;;;;;;11.02;4.50;;;9.60;99.90;;;;;;4798613;29;20131;-84
2021/03/29 06:09:51;;;;;;;13.02;5.10;;;9.60;99.90;;;;;;4810617;29;20763;-84
2021/03/29 06:12:19;;;;;;;18.10;4.85;;;9.70;99.90;;;;;;4811564;29;20050;-83
2021/03/29 06:14:46;;;;;;;11.13;4.55;;;9.70;99.90;;;;;;4811227;29;20066;-83
2021/03/29 06:17:14;;;;;;;13.65;4.30;;;9.80;99.90;;;;;;4776048;29;20146;-83
2021/03/29 06:19:55;;;;;;;12.02;4.70;;;9.80;99.90;;;;;;4792940;29;20116;-83
2021/03/29 06:22:28;;;;;;;13.02;4.90;;;9.90;99.90;;;;;;4807107;29;20089;-83
2021/03/29 06:25:06;;;;;;;13.77;5.20;;;9.90;99.90;;;;;;4798881;29;20058;-86
2021/03/29 06:27:38;;;;;;;11.10;4.57;;;9.90;99.90;;;;;;4795595;29;20065;-82
2021/03/29 06:30:20;;;;;;;12.23;5.20;;;10.00;99.90;;;;;;4795530;29;20156;-83
2021/03/29 06:33:07;;;;;;;9.45;4.40;;;10.10;99.90;;;;;;4794997;29;20054;-82
2021/03/29 06:35:44;;;;;;;10.25;3.95;;;10.10;99.90;;;;;;4826505;29;20065;-83
2021/03/29 06:38:19;;;;;;;11.98;4.25;;;10.20;99.90;;;;;;4812379;29;20436;-83
2021/03/29 06:40:47;;;;;;;12.88;4.15;;;10.30;99.90;;;;;;4816967;29;20047;-83
2021/03/29 06:43:30;;;;;;;8.85;3.97;;;10.40;99.90;;;;;;4804406;29;20494;-83
2021/03/29 06:46:22;;;;;;;10.45;3.95;;;10.40;99.90;;;;;;4829396;29;20066;-83
2021/03/29 06:48:49;;;;;;;8.82;4.18;;;10.50;99.90;;;;;;4776054;29;20546;-83
2021/03/29 06:51:20;;;;;;;12.02;4.15;;;10.60;99.90;;;;;;4777511;29;20059;-83
2021/03/29 06:53:57;;;;;;;9.82;3.78;;;10.70;99.90;;;;;;4766584;30;20130;-83
2021/03/29 06:56:26;;;;;;;11.18;4.45;;;10.70;99.90;;;;;;4776279;29;20046;-83
2021/03/29 06:59:19;;;;;;;13.02;4.00;;;10.80;99.90;;;;;;4794048;29;20135;-83
2021/03/29 07:01:51;;;;;;;12.52;4.35;;;10.90;99.90;;;;;;4751613;29;20055;-83
2021/03/29 07:04:25;;;;;;;14.40;4.72;;;11.00;99.90;;;;;;4797001;29;20054;-82
2021/03/29 07:06:53;;;;;;;11.05;4.10;;;11.10;99.90;;;;;;4778071;29;20055;-83
2021/03/29 07:09:20;;;;;;;10.77;4.47;;;11.10;99.90;;;;;;4779689;29;20088;-81
2021/03/29 07:11:47;;;;;;;17.42;6.53;;;11.30;99.90;;;;;;4775841;29;20054;-83
2021/03/29 07:14:17;;;;;;;11.88;7.22;;;11.40;99.90;;;;;;4784381;29;20050;-82
2021/03/29 07:16:45;;;;;;;13.38;4.70;;;11.50;99.90;;;;;;4779039;30;20051;-81
2021/03/29 07:19:12;;;;;;;13.30;4.05;;;11.50;99.90;;;;;;4795519;29;20058;-81
2021/03/29 07:21:39;;;;;;;14.57;4.15;;;11.60;99.90;;;;;;4816534;29;20104;-81
2021/03/29 07:24:07;;;;;;;10.45;4.22;;;11.70;99.90;;;;;;4794627;29;20099;-82
2021/03/29 07:26:53;;;;;;;10.88;4.07;;;11.80;99.90;;;;;;4790502;29;20055;-82
2021/03/29 07:29:33;;;;;;;12.75;3.97;;;11.80;99.90;;;;;;4807777;29;20062;-82
2021/03/29 07:32:01;;;;;;;11.07;3.78;;;11.90;99.90;;;;;;4793350;29;20050;-83
2021/03/29 07:34:55;;;;;;;16.13;3.67;;;12.00;99.90;;;;;;4789748;29;20050;-82
2021/03/29 07:37:39;;;;;;;15.27;4.15;;;12.10;99.90;;;;;;4821484;29;20085;-82
2021/03/29 07:40:32;;;;;;;12.52;3.83;;;12.20;99.90;;;;;;4807194;29;20054;-85
2021/03/29 07:43:25;;;;;;;11.60;4.10;;;12.20;99.90;;;;;;4788713;29;20463;-83
2021/03/29 07:46:02;;;;;;;15.43;3.83;;;12.30;99.90;;;;;;4798507;29;20507;-82
2021/03/29 07:48:40;;;;;;;11.02;3.95;;;12.40;99.90;;;;;;4822372;29;20050;-83
2021/03/29 07:51:12;;;;;;;14.38;4.07;;;12.50;99.90;;;;;;4791793;29;20055;-83
2021/03/29 07:53:49;;;;;;;12.98;4.38;;;12.60;99.90;;;;;;4789555;29;20070;-82
2021/03/29 07:56:34;;;;;;;9.18;3.47;;;12.70;99.90;;;;;;4811706;29;20743;-83
2021/03/29 07:59:03;;;;;;;13.82;4.22;;;12.80;99.90;;;;;;4816846;29;20491;-82
2021/03/29 08:02:05;;;;;;;14.25;4.72;;;12.90;99.90;;;;;;4802211;29;20053;-82
2021/03/29 08:05:26;;;;;;;8.15;3.33;;;12.90;99.90;;;;;;4809620;29;20474;-81
2021/03/29 08:07:56;;;;;;;11.27;3.40;;;13.10;99.90;;;;;;4776966;29;20203;-82
2021/03/29 08:10:56;;;;;;;11.10;3.22;;;13.10;99.90;;;;;;4742516;29;20051;-82
2021/03/29 08:13:47;;;;;;;11.30;3.20;;;13.10;99.90;;;;;;4770785;29;20059;-82
2021/03/29 08:16:52;;;;;;;9.63;3.03;;;13.20;99.90;;;;;;4750172;29;20158;-83
2021/03/29 08:19:20;;;;;;;9.10;3.47;;;13.20;99.90;;;;;;4739904;30;20066;-81
2021/03/29 08:21:54;;;;;;;7.15;2.97;;;13.20;99.90;;;;;;4738876;30;20056;-82
2021/03/29 08:24:51;;;;;;;9.43;3.33;;;13.10;99.90;;;;;;4754900;30;20158;-82
2021/03/29 08:27:18;;;;;;;11.85;3.58;;;13.10;99.90;;;;;;4696087;30;20579;-83
2021/03/29 08:29:52;;;;;;;15.35;3.58;;;13.10;99.90;;;;;;4738648;30;20166;-83
2021/03/29 08:32:36;;;;;;;11.32;4.35;;;13.10;99.90;;;;;;4725083;30;20060;-82
2021/03/29 08:35:17;;;;;;;11.73;3.72;;;13.10;99.90;;;;;;4759248;30;20059;-83
2021/03/29 08:37:52;;;;;;;11.68;3.40;;;13.10;99.90;;;;;;4748523;29;20065;-83
2021/03/29 08:40:33;;;;;;;10.55;3.38;;;13.10;99.90;;;;;;4764960;29;20066;-84
2021/03/29 08:43:05;;;;;;;9.73;4.00;;;13.10;99.90;;;;;;4760381;29;20063;-83
2021/03/29 08:45:32;;;;;;;10.30;4.40;;;13.20;99.90;;;;;;4768190;29;20069;-83
2021/03/29 08:48:00;;;;;;;14.48;4.63;;;13.30;99.90;;;;;;4744828;29;20058;-83
2021/03/29 08:50:35;;;;;;;13.27;4.28;;;13.40;99.90;;;;;;4758028;29;20055;-84
2021/03/29 08:53:04;;;;;;;9.60;2.97;;;13.50;99.90;;;;;;4789381;29;20178;-83
2021/03/29 08:55:37;;;;;;;7.60;2.35;;;13.50;99.90;;;;;;4806550;29;20061;-84
2021/03/29 08:58:04;;;;;;;10.82;3.13;;;13.50;99.90;;;;;;4819248;29;20050;-84
2021/03/29 09:00:36;;;;;;;11.55;3.25;;;13.40;99.90;;;;;;4793259;29;20149;-82
2021/03/29 09:03:13;;;;;;;7.97;2.90;;;13.40;99.90;;;;;;4803763;29;20053;-84
2021/03/29 09:05:40;;;;;;;11.75;3.13;;;13.40;99.90;;;;;;4787701;29;20058;-82
2021/03/29 09:08:11;;;;;;;10.10;3.35;;;13.50;99.90;;;;;;4785014;29;20076;-83
2021/03/29 09:10:40;;;;;;;10.80;3.17;;;13.70;99.90;;;;;;4779637;29;20146;-85
2021/03/29 09:13:10;;;;;;;9.20;3.20;;;13.70;99.90;;;;;;4778154;29;20085;-84
2021/03/29 09:15:39;;;;;;;9.50;3.72;;;13.80;99.90;;;;;;4807957;29;20107;-87
2021/03/29 09:18:14;;;;;;;8.77;3.60;;;13.90;99.90;;;;;;4801473;29;20064;-87
2021/03/29 09:20:46;;;;;;;10.13;3.58;;;14.00;99.90;;;;;;4794836;29;20126;-82
2021/03/29 09:23:19;;;;;;;11.15;3.55;;;14.10;99.90;;;;;;4789249;29;20115;-81
2021/03/29 09:25:48;;;;;;;9.88;3.55;;;14.20;99.90;;;;;;4833746;29;20046;-81
2021/03/29 09:30:48;;;;;;;6.90;3.47;;;14.50;99.90;;;;;;4807424;29;20149;-82
2021/03/29 09:33:15;;;;;;;11.13;4.50;;;14.60;99.90;;;;;;4794380;29;20053;-83
2021/03/29 09:35:43;;;;;;;9.05;3.75;;;14.70;99.90;;;;;;4793642;29;20050;-82
2021/03/29 09:38:12;;;;;;;9.65;3.58;;;14.70;99.90;;;;;;4793214;29;20050;-84
2021/03/29 09:40:38;;;;;;;8.63;3.20;;;14.70;99.90;;;;;;4794208;29;20181;-86
2021/03/29 09:43:21;;;;;;;9.38;3.33;;;14.70;99.90;;;;;;4776116;29;20054;-84
2021/03/29 09:45:48;;;;;;;6.88;3.15;;;14.70;99.90;;;;;;4786653;29;20506;-86
2021/03/29 09:48:40;;;;;;;8.70;3.42;;;14.70;99.90;;;;;;4792195;29;20050;-84
2021/03/29 09:51:22;;;;;;;10.13;3.15;;;14.70;99.90;;;;;;4788064;29;20042;-84
2021/03/29 09:53:49;;;;;;;9.00;3.75;;;14.90;99.90;;;;;;4817621;29;20063;-87
2021/03/29 09:56:29;;;;;;;9.75;3.10;;;15.00;99.90;;;;;;4791342;29;20058;-84
2021/03/29 09:58:55;;;;;;;9.60;3.33;;;15.00;99.90;;;;;;4774469;29;20062;-83
2021/03/29 10:01:24;;;;;;;7.85;3.22;;;15.10;99.90;;;;;;4814382;29;20054;-83
2021/03/29 10:04:13;;;;;;;11.75;3.97;;;15.10;99.90;;;;;;4800779;29;20058;-84
2021/03/29 10:06:57;;;;;;;7.90;3.25;;;15.10;99.90;;;;;;4792517;29;20064;-84
2021/03/29 10:09:36;;;;;;;10.60;3.72;;;15.10;99.90;;;;;;4814744;29;20051;-84
2021/03/29 10:12:04;;;;;;;10.88;3.75;;;15.00;99.90;;;;;;4765618;29;20058;-84
2021/03/29 10:14:38;;;;;;;12.05;4.95;;;15.00;99.90;;;;;;4825102;29;20057;-84
2021/03/29 10:17:18;;;;;;;8.40;3.17;;;15.00;99.90;;;;;;4780424;29;20059;-85
2021/03/29 10:19:46;;;;;;;11.27;3.85;;;14.90;99.90;;;;;;4809471;29;20055;-85
2021/03/29 10:22:18;;;;;;;11.23;4.07;;;14.90;99.90;;;;;;4790231;29;20157;-89
2021/03/29 10:25:24;;;;;;;10.20;4.38;;;14.80;99.90;;;;;;4801516;29;20119;-83
2021/03/29 10:27:54;;;;;;;14.13;4.40;;;14.70;99.90;;;;;;4741050;30;20535;-82
2021/03/29 10:30:25;;;;;;;11.70;5.25;;;14.70;99.90;;;;;;4764660;30;20539;-84
2021/03/29 10:33:00;;;;;;;9.13;4.32;;;14.60;99.90;;;;;;4768896;29;20058;-83
2021/03/29 10:35:30;;;;;;;7.97;3.47;;;14.50;99.90;;;;;;4778324;29;20062;-84
2021/03/29 10:37:57;;;;;;;10.93;4.35;;;14.50;99.90;;;;;;4779186;29;20466;-84
2021/03/29 10:40:24;;;;;;;10.95;4.32;;;14.50;99.90;;;;;;4774671;29;20112;-83
2021/03/29 10:42:51;;;;;;;9.50;4.18;;;14.50;99.90;;;;;;4801596;29;20520;-84
2021/03/29 10:45:19;;;;;;;10.60;4.30;;;14.50;99.90;;;;;;4797643;29;20117;-84
2021/03/29 10:47:47;;;;;;;14.88;4.60;;;14.50;99.90;;;;;;4779208;29;20108;-84
2021/03/29 10:50:16;;;;;;;10.77;4.45;;;14.60;99.90;;;;;;4788002;29;20497;-84
2021/03/29 10:52:48;;;;;;;10.38;4.60;;;14.60;99.90;;;;;;4789855;29;20086;-85
2021/03/29 10:55:15;;;;;;;10.70;4.55;;;14.70;99.90;;;;;;4798176;29;20062;-84
2021/03/29 10:57:42;;;;;;;11.20;4.32;;;14.70;99.90;;;;;;4777936;29;20074;-83
2021/03/29 11:00:12;;;;;;;10.38;4.50;;;14.70;99.90;;;;;;4816302;29;20386;-87
2021/03/29 11:02:39;;;;;;;10.70;4.47;;;14.70;99.90;;;;;;4801488;29;20138;-84
2021/03/29 11:05:08;;;;;;;15.07;4.75;;;14.70;99.90;;;;;;4780292;29;20559;-84
2021/03/29 11:07:35;;;;;;;12.18;4.47;;;14.70;99.90;;;;;;4789817;29;20070;-83
2021/03/29 11:10:05;;;;;;;11.85;4.32;;;14.80;99.90;;;;;;4788967;29;20484;-84
2021/03/29 11:12:31;;;;;;;13.32;5.30;;;14.80;99.90;;;;;;4821809;29;20046;-84
2021/03/29 11:14:58;;;;;;;11.75;4.13;;;14.80;99.90;;;;;;4789766;29;20043;-83
2021/03/29 11:17:28;;;;;;;7.78;3.67;;;14.90;99.90;;;;;;4794726;29;20111;-87
2021/03/29 11:19:55;;;;;;;11.88;4.25;;;14.90;99.90;;;;;;4779417;29;20058;-86
2021/03/29 11:22:21;;;;;;;15.02;4.60;;;14.90;99.90;;;;;;4780708;29;20054;-84
2021/03/29 11:24:48;;;;;;;15.93;5.15;;;14.90;99.90;;;;;;4794579;29;20054;-83
2021/03/29 11:27:15;;;;;;;12.30;4.82;;;15.00;99.90;;;;;;4801509;29;20063;-84
2021/03/29 11:29:42;;;;;;;11.23;3.90;;;15.00;99.90;;;;;;4804692;29;20057;-84
2021/03/29 11:32:10;;;;;;;9.45;3.83;;;15.00;99.90;;;;;;4791625;29;20046;-85
2021/03/29 11:34:36;;;;;;;10.98;4.50;;;15.10;99.90;;;;;;4794253;29;20062;-84
2021/03/29 11:37:06;;;;;;;11.82;4.93;;;15.30;99.90;;;;;;4779565;29;20565;-84
2021/03/29 11:39:32;;;;;;;12.40;4.25;;;15.30;99.90;;;;;;4800290;29;20055;-84
2021/03/29 11:41:59;;;;;;;11.85;4.85;;;15.30;99.90;;;;;;4800043;29;20118;-85
2021/03/29 11:44:26;;;;;;;9.85;4.28;;;15.30;99.90;;;;;;4811193;29;20050;-84
2021/03/29 11:46:53;;;;;;;9.73;4.10;;;15.20;99.90;;;;;;4790035;29;20052;-85
2021/03/29 11:49:19;;;;;;;10.00;4.90;;;15.20;99.90;;;;;;4797751;29;20093;-86
2021/03/29 11:51:47;;;;;;;13.68;4.53;;;15.20;99.90;;;;;;4796673;29;20090;-86
2021/03/29 11:54:14;;;;;;;11.30;4.78;;;15.20;99.90;;;;;;4794394;29;20555;-85
2021/03/29 11:56:41;;;;;;;10.80;4.57;;;15.20;99.90;;;;;;4794306;29;20054;-86
2021/03/29 11:59:08;;;;;;;14.30;5.20;;;15.20;99.90;;;;;;4807784;29;20092;-85
2021/03/29 12:01:42;;;;;;;9.73;4.05;;;15.20;99.90;;;;;;4785056;29;20490;-87
2021/03/29 12:04:15;;;;;;;11.73;4.00;;;15.20;99.90;;;;;;4797695;29;20054;-86
2021/03/29 12:12:01;;;;;;;11.73;3.80;;;15.10;99.90;;;;;;4779116;29;20070;-86
2021/03/29 12:14:56;;;;;;;9.20;4.40;;;15.10;99.90;;;;;;4793452;29;20058;-91
2021/03/29 12:17:28;;;;;;;9.43;3.67;;;15.10;99.90;;;;;;4724604;29;20058;-84
2021/03/29 12:19:55;;;;;;;10.00;3.95;;;15.20;99.90;;;;;;4739823;30;20113;-84
2021/03/29 12:22:25;;;;;;;14.95;4.97;;;15.20;99.90;;;;;;4720880;29;20139;-84
2021/03/29 12:24:55;;;;;;;12.15;4.25;;;15.30;99.90;;;;;;4727811;30;20065;-86
2021/03/29 12:27:22;;;;;;;10.00;3.40;;;15.20;99.90;;;;;;4734971;29;20087;-83
2021/03/29 12:29:49;;;;;;;9.07;3.55;;;15.30;99.90;;;;;;4731596;30;20546;-84
2021/03/29 12:32:18;;;;;;;9.48;3.55;;;15.20;99.90;;;;;;4757085;30;20474;-84
2021/03/29 12:34:50;;;;;;;9.20;3.42;;;15.30;99.90;;;;;;4746559;29;20066;-84
2021/03/29 12:37:18;;;;;;;10.98;4.32;;;15.30;99.90;;;;;;4764292;30;20056;-84
2021/03/29 12:39:50;;;;;;;11.48;3.20;;;15.30;99.90;;;;;;4762534;29;20149;-84
2021/03/29 12:42:22;;;;;;;8.10;3.67;;;15.30;99.90;;;;;;4743188;30;20070;-84
2021/03/29 12:44:50;;;;;;;10.70;3.58;;;15.20;99.90;;;;;;4746279;30;20062;-84
2021/03/29 12:47:34;;;;;;;8.90;2.97;;;15.40;99.90;;;;;;4754517;29;20065;-84
2021/03/29 12:50:12;;;;;;;9.77;3.72;;;15.40;99.90;;;;;;4782389;29;20505;-85
2021/03/29 12:52:40;;;;;;;9.90;3.55;;;15.50;99.90;;;;;;4801187;29;20058;-84
2021/03/29 12:55:11;;;;;;;9.18;3.67;;;15.50;99.90;;;;;;4784378;29;20569;-84
2021/03/29 12:57:38;;;;;;;9.70;4.00;;;15.60;99.90;;;;;;4821334;29;20054;-84
2021/03/29 13:00:06;;;;;;;7.78;3.50;;;15.60;99.90;;;;;;4787021;29;20050;-85
2021/03/29 13:02:33;;;;;;;10.63;3.90;;;15.60;99.90;;;;;;4759636;29;20145;-85
2021/03/29 13:05:00;;;;;;;10.30;4.13;;;15.70;99.90;;;;;;4791865;29;20419;-85
2021/03/29 13:07:32;;;;;;;9.25;4.30;;;15.70;99.90;;;;;;4792838;29;20050;-83
2021/03/29 13:10:08;;;;;;;13.73;4.32;;;15.80;99.90;;;;;;4779267;29;20502;-84
2021/03/29 13:12:35;;;;;;;8.77;3.70;;;15.70;99.90;;;;;;4794502;29;20054;-81
2021/03/29 13:15:09;;;;;;;7.15;3.75;;;15.70;99.90;;;;;;4792592;29;20415;-82
2021/03/29 13:17:40;;;;;;;9.77;3.58;;;15.60;99.90;;;;;;4793632;29;20473;-83